• Join FlightAware (Why Join?)
  • Login
  • US Flag 
10:04PM EST


 

Airport Tracker/Info


-or-


 

Live Flight TrackerFlight Track Log ✈ N321FU ✈ 21-Mar-2014 ✈ KPGD - 7FL6

Flight Track Log - Related Links

Times and Time Zones

All times are in EDT time to prevent confusion due to time zone crossing. See the N321FU flight status page for this flight to view local times or setup timezone preferences in your user account.

Time Position Orientation Groundspeed Altitude Reporting Facility
EDT Latitude Longitude Course Direction KTS MPH feet Rate Location/Type
07:48PM 27.0142 -81.9644 354° North 133 153 3,500  Level Miami Center
07:49PM 27.0514 -81.9733 348° North 143 165 4,000 600 Climbing Miami Center
07:50PM 27.0950 -81.9822 350° North 148 170 4,700 720 Climbing Miami Center
07:51PM 27.1372 -81.9700 14° North 148 170 5,500 600 Climbing Miami Center
07:52PM 27.1792 -81.9625 North 143 165 5,900 240 Climbing Miami Center
07:53PM 27.1787 -81.8976 10° North  Level FlightAware Approximate
07:53PM 27.2275 -81.9506 12° North 156 180 6,000  Level Miami Center
07:54PM 27.2803 -81.9367 13° North 177 204 6,000  Level Miami Center
07:55PM 27.3350 -81.9250 11° North 188 216 6,000  Level Miami Center
07:56PM 27.3875 -81.9086 15° North 188 216 6,000  Level Miami Center
07:57PM 27.4403 -81.8922 15° North 188 216 6,000  Level Miami Center
07:58PM 27.4931 -81.8758 15° North 188 216 6,000  Level Miami Center
07:59PM 27.5522 -81.8572 16° North 188 216 6,000  Level Miami Center
08:00PM 27.6050 -81.8408 15° North 188 216 6,000  Level Miami Center
08:01PM 27.6514 -81.8264 15° North 188 216 6,000  Level Miami Center
08:02PM 27.7061 -81.8125 13° North 188 216 6,000  Level Miami Center
08:04PM 27.8000 -81.7833 15° North 202 232 6,000  Level Orlando TRACON
08:05PM 27.8500 -81.7667 16° North 202 232 6,000  Level Orlando TRACON
08:06PM 27.9167 -81.7500 12° North 202 232 6,000  Level Orlando TRACON
08:07PM 27.9667 -81.7333 16° North 201 231 6,000  Level Orlando TRACON
08:08PM 28.0167 -81.7167 16° North 203 234 6,000  Level Orlando TRACON
08:09PM 28.0667 -81.7000 16° North 204 235 6,000  Level Orlando TRACON
08:10PM 28.1167 -81.6833 16° North 202 232 6,000 -420 Level Orlando TRACON
08:11PM 28.1833 -81.6667 12° North 210 242 5,200 -480 Descending Orlando TRACON
08:12PM 28.2500 -81.6500 12° North 217 250 5,000 -180 Descending Orlando TRACON
08:13PM 28.3000 -81.6333 16° North 196 226 4,900 -60 Descending Orlando TRACON
08:14PM 28.3500 -81.6167 16° North 195 224 4,900  Level Orlando TRACON
08:15PM 28.4000 -81.6000 16° North 194 223 4,900  Level Orlando TRACON
08:16PM 28.4500 -81.5833 16° North 191 220 4,900  Level Orlando TRACON
08:17PM 28.5000 -81.5667 16° North 193 222 4,900  Level Orlando TRACON
08:18PM 28.5500 -81.5500 16° North 194 223 4,900  Level Orlando TRACON
08:19PM 28.6000 -81.5333 16° North 197 227 4,900 -360 Level Orlando TRACON
08:20PM 28.6667 -81.5333 360° North 200 230 4,200 -600 Descending Orlando TRACON
08:21PM 28.7167 -81.5000 30° Northeast 208 239 3,700 -540 Descending Orlando TRACON
08:22PM 28.7500 -81.4500 53° Northeast 188 216 3,200 -420 Descending Orlando TRACON
08:23PM 28.7833 -81.4167 41° Northeast 184 212 2,900 -120 Descending Orlando TRACON
08:25PM 28.8519 -81.3303 48° Northeast 174 200 3,000 60 Climbing Jacksonville Center
08:26PM 28.8706 -81.3042 51° Northeast 174 200 3,100  Climbing Jacksonville Center
08:27PM 28.9136 -81.2511 47° Northeast 177 204 3,100 -120 Level Jacksonville Center
08:28PM 28.9444 -81.2150 46° Northeast 177 204 2,900 -540 Descending Jacksonville Center
08:29PM 28.9836 -81.1717 44° Northeast 187 215 2,100 -660 Descending Jacksonville Center
08:30PM 29.0186 -81.1283 47° Northeast 173 199 1,600 -540 Descending Jacksonville Center
08:32PM 29.0583 -81.0499 60° Northeast  Level FlightAware Approximate
08:39PM 29.0667 -81.0333 41° Northeast  Level FlightAware Approximate
08:40PM 29.0802 -81.0466 319° Northwest  Level Estimated
08:41PM 29.0802 -81.0466 North  Level Estimated